createdAt,value
2019-01-27T00:01:08.598Z,-1.12
2019-01-27T00:03:38.482Z,-1.11
2019-01-27T00:06:07.629Z,-1.08
2019-01-27T00:08:36.694Z,-1.11
2019-01-27T00:11:05.759Z,-1.11
2019-01-27T00:13:34.870Z,-1.11
2019-01-27T00:16:03.931Z,-1.14
2019-01-27T00:18:33.000Z,-1.15
2019-01-27T00:21:02.103Z,-1.12
2019-01-27T00:23:31.181Z,-1.14
2019-01-27T00:26:00.248Z,-1.18
2019-01-27T00:28:29.654Z,-1.20
2019-01-27T00:30:58.734Z,-1.18
2019-01-27T00:33:27.812Z,-1.15
2019-01-27T00:35:57.249Z,-1.16
2019-01-27T00:38:26.332Z,-1.15
2019-01-27T00:40:55.405Z,-1.16
2019-01-27T00:43:24.513Z,-1.18
2019-01-27T00:45:53.588Z,-1.17
2019-01-27T00:48:22.653Z,-1.20
2019-01-27T00:50:51.786Z,-1.21
2019-01-27T00:53:20.857Z,-1.27
2019-01-27T00:55:49.934Z,-1.29
2019-01-27T00:58:19.034Z,-1.34
2019-01-27T01:00:48.119Z,-1.33
2019-01-27T01:03:17.168Z,-1.35
2019-01-27T01:05:46.274Z,-1.33
2019-01-27T01:08:15.349Z,-1.29
2019-01-27T01:10:44.418Z,-1.25
2019-01-27T01:13:13.531Z,-1.22
2019-01-27T01:15:42.599Z,-1.21
2019-01-27T01:18:11.692Z,-1.33
2019-01-27T01:20:40.793Z,-1.36
2019-01-27T01:23:09.852Z,-1.44
2019-01-27T01:25:38.924Z,-1.52
2019-01-27T01:28:08.024Z,-1.49
2019-01-27T01:30:37.109Z,-1.46
2019-01-27T01:33:06.170Z,-1.42
2019-01-27T01:35:35.305Z,-1.37
2019-01-27T01:38:04.365Z,-1.36
2019-01-27T01:40:33.457Z,-1.31
2019-01-27T01:43:02.581Z,-1.27
2019-01-27T01:45:31.646Z,-1.27
2019-01-27T01:48:00.719Z,-1.28
2019-01-27T01:50:29.812Z,-1.31
2019-01-27T01:52:58.862Z,-1.37
2019-01-27T01:55:27.940Z,-1.41
2019-01-27T01:57:57.116Z,-1.49
2019-01-27T02:00:26.144Z,-1.50
2019-01-27T02:02:55.216Z,-1.49
2019-01-27T02:05:24.354Z,-1.48
2019-01-27T02:07:53.396Z,-1.46
2019-01-27T02:10:22.573Z,-1.46
2019-01-27T02:12:51.694Z,-1.47
2019-01-27T02:15:21.566Z,-1.47
2019-01-27T02:17:50.649Z,-1.49
2019-01-27T02:20:19.771Z,-1.46
2019-01-27T02:22:48.834Z,-1.41
2019-01-27T02:25:17.904Z,-1.43
2019-01-27T02:27:47.010Z,-1.43
2019-01-27T02:30:16.428Z,-1.41
2019-01-27T02:32:45.474Z,-1.44
2019-01-27T02:35:14.576Z,-1.45
2019-01-27T02:37:43.642Z,-1.46
2019-01-27T02:40:12.696Z,-1.52
2019-01-27T02:42:41.822Z,-1.45
2019-01-27T02:45:12.765Z,-1.52
2019-01-27T02:47:41.877Z,-1.52
2019-01-27T02:50:11.069Z,-1.49
2019-01-27T02:52:40.135Z,-1.47
2019-01-27T02:55:09.194Z,-1.45
2019-01-27T02:57:38.291Z,-1.43
2019-01-27T03:00:08.269Z,-1.41
2019-01-27T03:02:37.365Z,-1.44
2019-01-27T03:05:06.527Z,-1.48
2019-01-27T03:07:35.616Z,-1.47
2019-01-27T03:10:04.666Z,-1.51
2019-01-27T03:12:33.826Z,-1.47
2019-01-27T03:15:02.883Z,-1.43
2019-01-27T03:17:31.941Z,-1.42
2019-01-27T03:20:01.022Z,-1.36
2019-01-27T03:22:30.078Z,-1.45
2019-01-27T03:24:59.154Z,-1.44
2019-01-27T03:27:28.265Z,-1.42
2019-01-27T03:29:57.335Z,-1.38
2019-01-27T03:32:26.399Z,-1.36
2019-01-27T03:34:55.501Z,-1.32
2019-01-27T03:37:24.574Z,-1.41
2019-01-27T03:39:53.662Z,-1.39
2019-01-27T03:42:22.748Z,-1.39
2019-01-27T03:44:51.823Z,-1.43
2019-01-27T03:47:20.873Z,-1.36
2019-01-27T03:49:50.113Z,-1.38
2019-01-27T03:52:19.516Z,-1.35
2019-01-27T03:54:48.519Z,-1.37
2019-01-27T03:57:17.615Z,-1.32
2019-01-27T03:59:46.681Z,-1.31
2019-01-27T04:02:15.753Z,-1.33
2019-01-27T04:04:44.885Z,-1.37
2019-01-27T04:07:13.959Z,-1.41
2019-01-27T04:09:43.031Z,-1.47
2019-01-27T04:12:12.132Z,-1.46
2019-01-27T04:14:41.203Z,-1.40
2019-01-27T04:17:10.276Z,-1.41
2019-01-27T04:19:39.376Z,-1.48
2019-01-27T04:22:08.453Z,-1.42
2019-01-27T04:24:37.871Z,-1.37
2019-01-27T04:27:06.879Z,-1.37
2019-01-27T04:29:35.945Z,-1.37
2019-01-27T04:32:05.023Z,-1.31
2019-01-27T04:34:34.122Z,-1.29
2019-01-27T04:37:03.208Z,-1.30
2019-01-27T04:39:32.271Z,-1.29
2019-01-27T04:42:01.460Z,-1.28
2019-01-27T04:44:30.532Z,-1.33
2019-01-27T04:46:59.600Z,-1.29
2019-01-27T04:49:28.717Z,-1.28
2019-01-27T04:51:57.786Z,-1.30
2019-01-27T04:54:26.847Z,-1.26
2019-01-27T04:56:55.991Z,-1.28
2019-01-27T04:59:25.065Z,-1.26
2019-01-27T05:01:54.126Z,-1.23
2019-01-27T05:04:23.221Z,-1.25
2019-01-27T05:06:52.281Z,-1.21
2019-01-27T05:09:22.185Z,-1.17
2019-01-27T05:11:51.277Z,-1.18
2019-01-27T05:14:20.340Z,-1.22
2019-01-27T05:16:49.402Z,-1.20
2019-01-27T05:19:18.521Z,-1.21
2019-01-27T05:21:47.577Z,-1.22
2019-01-27T05:24:16.646Z,-1.23
2019-01-27T05:26:45.732Z,-1.21
2019-01-27T05:29:14.789Z,-1.21
2019-01-27T05:31:43.858Z,-1.25
2019-01-27T05:34:12.939Z,-1.29
2019-01-27T05:36:41.996Z,-1.27
2019-01-27T05:39:11.056Z,-1.24
2019-01-27T05:41:40.153Z,-1.28
2019-01-27T05:44:09.490Z,-1.29
2019-01-27T05:46:38.485Z,-1.28
2019-01-27T05:49:07.883Z,-1.26
2019-01-27T05:51:36.880Z,-1.23
2019-01-27T05:54:05.944Z,-1.25
2019-01-27T05:56:35.037Z,-1.27
2019-01-27T05:59:04.101Z,-1.25
2019-01-27T06:01:33.166Z,-1.21
2019-01-27T06:04:02.270Z,-1.25
2019-01-27T06:06:31.321Z,-1.18
2019-01-27T06:09:00.373Z,-1.29
2019-01-27T06:11:30.332Z,-1.28
2019-01-27T06:13:59.382Z,-1.30
2019-01-27T06:16:28.451Z,-1.27
2019-01-27T06:18:57.541Z,-1.26
2019-01-27T06:21:26.609Z,-1.24
2019-01-27T06:23:55.659Z,-1.21
2019-01-27T06:26:24.978Z,-1.22
2019-01-27T06:28:54.030Z,-1.23
2019-01-27T06:31:23.097Z,-1.21
2019-01-27T06:33:52.190Z,-1.16
2019-01-27T06:36:21.252Z,-1.14
2019-01-27T06:38:50.311Z,-1.13
2019-01-27T06:41:19.399Z,-1.11
2019-01-27T06:43:48.468Z,-1.10
2019-01-27T06:46:17.578Z,-1.14
2019-01-27T06:48:46.681Z,-1.07
2019-01-27T06:51:15.742Z,-1.02
2019-01-27T06:53:44.797Z,-1.09
2019-01-27T06:56:13.888Z,-1.08
2019-01-27T07:01:28.121Z,-1.09
2019-01-27T07:03:57.960Z,-1.01
2019-01-27T07:06:27.027Z,-1.06
2019-01-27T07:08:56.236Z,-1.04
2019-01-27T07:11:25.288Z,-1.04
2019-01-27T07:16:38.701Z,-0.97
2019-01-27T07:19:07.782Z,-0.96
2019-01-27T07:21:37.655Z,-0.99
2019-01-27T07:24:07.521Z,-0.98
2019-01-27T07:26:37.439Z,-0.94
2019-01-27T07:29:06.504Z,-0.96
2019-01-27T07:31:38.323Z,-0.92
2019-01-27T07:34:12.804Z,-0.88
2019-01-27T07:36:41.917Z,-0.83
2019-01-27T07:39:13.800Z,-0.81
2019-01-27T07:41:42.922Z,-0.84
2019-01-27T07:44:11.974Z,-0.86
2019-01-27T07:46:42.976Z,-0.84
2019-01-27T07:49:18.003Z,-0.80
2019-01-27T07:51:47.995Z,-0.73
2019-01-27T07:54:21.993Z,-0.77
2019-01-27T07:56:52.027Z,-0.79
2019-01-27T07:59:26.166Z,-0.80
2019-01-27T08:02:00.081Z,-0.73
2019-01-27T08:04:29.157Z,-0.81
2019-01-27T08:07:03.060Z,-0.74
2019-01-27T08:09:32.942Z,-0.73
2019-01-27T08:12:02.013Z,-0.72
2019-01-27T08:14:32.790Z,-0.71
2019-01-27T08:17:01.926Z,-0.71
2019-01-27T08:22:16.779Z,-0.70
2019-01-27T08:24:48.702Z,-0.67
2019-01-27T08:27:19.765Z,-0.63
2019-01-27T08:29:57.487Z,-0.64
2019-01-27T08:32:25.662Z,-0.62
2019-01-27T08:34:54.737Z,-0.65
2019-01-27T08:37:29.637Z,-0.62
2019-01-27T08:39:58.689Z,-0.66
2019-01-27T08:42:27.758Z,-0.68
2019-01-27T08:44:57.770Z,-0.64
2019-01-27T08:47:26.821Z,-0.67
2019-01-27T08:49:55.902Z,-0.67
2019-01-27T08:52:25.008Z,-0.64
2019-01-27T08:54:54.071Z,-0.68
2019-01-27T08:57:23.132Z,-0.58
2019-01-27T08:59:52.217Z,-0.57
2019-01-27T09:02:21.273Z,-0.59
2019-01-27T09:04:51.284Z,-0.57
2019-01-27T09:07:22.307Z,-0.55
2019-01-27T09:09:52.296Z,-0.52
2019-01-27T09:12:27.386Z,-0.52
2019-01-27T09:14:58.050Z,-0.52
2019-01-27T09:17:29.902Z,-0.56
2019-01-27T09:19:58.952Z,-0.56
2019-01-27T09:22:28.828Z,-0.49
2019-01-27T09:24:57.926Z,-0.47
2019-01-27T09:27:26.985Z,-0.41
2019-01-27T09:30:01.040Z,-0.36
2019-01-27T09:32:30.105Z,-0.31
2019-01-27T09:35:04.653Z,-0.33
2019-01-27T09:37:35.627Z,-0.35
2019-01-27T09:40:10.367Z,-0.38
2019-01-27T09:42:44.933Z,-0.34
2019-01-27T09:45:14.050Z,-0.29
2019-01-27T09:47:48.827Z,-0.35
2019-01-27T09:50:20.769Z,-0.36
2019-01-27T09:52:52.786Z,-0.31
2019-01-27T09:55:21.878Z,-0.40
2019-01-27T09:57:53.777Z,-0.32
2019-01-27T10:00:22.899Z,-0.30
2019-01-27T10:02:55.739Z,-0.22
2019-01-27T10:05:25.862Z,-0.34
2019-01-27T10:08:00.412Z,-0.24
2019-01-27T10:10:35.447Z,-0.29
2019-01-27T10:13:05.513Z,-0.17
2019-01-27T10:18:19.305Z,-0.02
2019-01-27T10:20:52.381Z,0.01
2019-01-27T10:23:22.259Z,0.02
2019-01-27T10:25:51.350Z,0.02
2019-01-27T10:28:20.426Z,-0.06
2019-01-27T10:30:49.496Z,-0.04
2019-01-27T10:33:23.753Z,0.02
2019-01-27T10:35:52.802Z,0.00
2019-01-27T10:38:22.787Z,-0.10
2019-01-27T10:40:51.863Z,-0.01
2019-01-27T10:43:23.782Z,-0.03
2019-01-27T10:45:52.867Z,-0.02
2019-01-27T10:48:23.857Z,-0.08
2019-01-27T10:50:57.912Z,-0.07
2019-01-27T10:53:26.951Z,0.01
2019-01-27T10:55:57.865Z,-0.01
2019-01-27T10:58:26.959Z,0.10
2019-01-27T11:00:57.952Z,0.04
2019-01-27T11:03:31.848Z,0.09
2019-01-27T11:06:02.828Z,0.17
2019-01-27T11:08:31.874Z,0.14
2019-01-27T11:11:01.806Z,0.18
2019-01-27T11:13:31.676Z,0.27
2019-01-27T11:16:02.566Z,0.34
2019-01-27T11:18:36.608Z,0.35
2019-01-27T11:21:05.667Z,0.42
2019-01-27T11:23:36.653Z,0.40
2019-01-27T11:26:05.800Z,0.43
2019-01-27T11:28:34.857Z,0.45
2019-01-27T11:31:07.789Z,0.49
2019-01-27T11:33:40.679Z,0.53
2019-01-27T11:36:15.306Z,0.50
2019-01-27T11:38:44.350Z,0.51
2019-01-27T11:41:14.205Z,0.51
2019-01-27T11:43:44.130Z,0.56
2019-01-27T11:46:17.190Z,0.59
2019-01-27T11:48:48.198Z,0.56
2019-01-27T11:51:18.402Z,0.62
2019-01-27T11:53:47.460Z,0.74
2019-01-27T11:56:16.564Z,0.77
2019-01-27T11:58:45.620Z,0.80
2019-01-27T12:01:14.670Z,0.80
2019-01-27T12:03:43.815Z,0.78
2019-01-27T12:06:12.881Z,0.81
2019-01-27T12:08:41.937Z,0.87
2019-01-27T12:11:11.023Z,0.92
2019-01-27T12:13:40.073Z,0.93
2019-01-27T12:16:09.955Z,0.96
2019-01-27T12:18:39.032Z,0.94
2019-01-27T12:21:08.096Z,1.00
2019-01-27T12:23:37.210Z,1.02
2019-01-27T12:26:06.336Z,1.06
2019-01-27T12:28:35.390Z,1.07
2019-01-27T12:31:04.445Z,1.11
2019-01-27T12:33:33.519Z,1.09
2019-01-27T12:36:02.566Z,1.11
2019-01-27T12:38:31.622Z,1.04
2019-01-27T12:41:00.805Z,1.09
2019-01-27T12:43:29.855Z,1.09
2019-01-27T12:45:58.924Z,1.03
2019-01-27T12:48:28.045Z,1.06
2019-01-27T12:50:57.110Z,1.09
2019-01-27T12:53:26.165Z,1.11
2019-01-27T12:55:55.250Z,1.11
2019-01-27T12:58:24.304Z,1.09
2019-01-27T13:00:53.394Z,1.12
2019-01-27T13:03:22.484Z,1.07
2019-01-27T13:05:51.545Z,1.04
2019-01-27T13:08:20.606Z,1.06
2019-01-27T13:10:49.743Z,1.04
2019-01-27T13:13:18.807Z,1.11
2019-01-27T13:15:47.863Z,1.06
2019-01-27T13:18:16.945Z,1.10
2019-01-27T13:21:02.284Z,1.21
2019-01-27T13:23:31.939Z,1.35
2019-01-27T13:26:01.001Z,1.41
2019-01-27T13:28:30.062Z,1.40
2019-01-27T13:30:59.187Z,1.48
2019-01-27T13:33:28.232Z,1.44
2019-01-27T13:35:57.282Z,1.43
2019-01-27T13:38:26.374Z,1.43
2019-01-27T13:40:55.476Z,1.50
2019-01-27T13:43:24.467Z,1.48
2019-01-27T13:45:53.545Z,1.49
2019-01-27T13:48:22.619Z,1.40
2019-01-27T13:50:51.668Z,1.43
2019-01-27T13:53:20.759Z,1.34
2019-01-27T13:55:49.815Z,1.25
2019-01-27T13:58:18.877Z,1.27
2019-01-27T14:00:47.953Z,1.33
2019-01-27T14:03:17.009Z,1.28
2019-01-27T14:05:46.058Z,1.32
2019-01-27T14:08:15.135Z,1.38
2019-01-27T14:10:44.189Z,1.42
2019-01-27T14:13:13.249Z,1.44
2019-01-27T14:15:42.585Z,1.36
2019-01-27T14:18:11.640Z,1.28
2019-01-27T14:20:40.695Z,1.23
2019-01-27T14:23:09.774Z,1.30
2019-01-27T14:25:38.836Z,1.36
2019-01-27T14:28:07.891Z,1.40
2019-01-27T14:30:37.800Z,1.40
2019-01-27T14:33:06.870Z,1.33
2019-01-27T14:35:35.930Z,1.26
2019-01-27T14:38:05.032Z,1.21
2019-01-27T14:40:34.096Z,1.27
2019-01-27T14:43:03.154Z,1.32
2019-01-27T14:45:32.251Z,1.32
2019-01-27T14:48:01.280Z,1.28
2019-01-27T14:50:30.358Z,1.32
2019-01-27T14:52:59.439Z,1.31
2019-01-27T14:55:28.497Z,1.27
2019-01-27T14:57:57.887Z,1.33
2019-01-27T15:00:26.662Z,1.28
2019-01-27T15:02:55.716Z,1.20
2019-01-27T15:05:24.778Z,1.23
2019-01-27T15:07:53.870Z,1.32
2019-01-27T15:10:22.945Z,1.33
2019-01-27T15:12:52.006Z,1.33
2019-01-27T15:15:21.128Z,1.26
2019-01-27T15:17:50.145Z,1.32
2019-01-27T15:20:25.880Z,1.26
2019-01-27T15:22:54.934Z,1.25
2019-01-27T15:25:23.989Z,1.31
2019-01-27T15:27:53.069Z,1.29
2019-01-27T15:30:25.060Z,1.24
2019-01-27T15:32:54.153Z,1.23
2019-01-27T15:35:23.193Z,1.27
2019-01-27T15:37:52.252Z,1.27
2019-01-27T15:40:21.368Z,1.30
2019-01-27T15:42:50.439Z,1.35
2019-01-27T15:45:19.494Z,1.25
2019-01-27T15:47:48.575Z,1.29
2019-01-27T15:50:18.455Z,1.29
2019-01-27T15:52:47.511Z,1.27
2019-01-27T15:55:16.593Z,1.29
2019-01-27T15:57:45.660Z,1.29
2019-01-27T16:00:15.518Z,1.27
2019-01-27T16:02:44.740Z,1.27
2019-01-27T16:05:13.802Z,1.25
2019-01-27T16:07:42.882Z,1.26
2019-01-27T16:10:11.972Z,1.30
2019-01-27T16:12:41.036Z,1.20
2019-01-27T16:15:10.923Z,1.16
2019-01-27T16:17:40.050Z,1.11
2019-01-27T16:20:09.113Z,1.19
2019-01-27T16:22:39.076Z,1.17
2019-01-27T16:25:08.191Z,1.19
2019-01-27T16:27:37.253Z,1.21
2019-01-27T16:30:07.139Z,1.21
2019-01-27T16:32:36.235Z,1.16
2019-01-27T16:35:05.300Z,1.20
2019-01-27T16:37:34.359Z,1.22
2019-01-27T16:40:03.469Z,1.26
2019-01-27T16:42:32.514Z,1.26
2019-01-27T16:45:01.570Z,1.24
2019-01-27T16:47:30.671Z,1.22
2019-01-27T16:49:59.788Z,1.23
2019-01-27T16:52:28.856Z,1.26
2019-01-27T16:54:57.956Z,1.23
2019-01-27T16:57:27.007Z,1.28
2019-01-27T16:59:56.061Z,1.30
2019-01-27T17:02:25.146Z,1.37
2019-01-27T17:04:54.214Z,1.45
2019-01-27T17:07:23.305Z,1.50
2019-01-27T17:09:52.511Z,1.48
2019-01-27T17:12:21.604Z,1.53
2019-01-27T17:14:50.622Z,1.51
2019-01-27T17:17:19.708Z,1.50
2019-01-27T17:19:48.779Z,1.49
2019-01-27T17:22:17.843Z,1.46
2019-01-27T17:24:46.920Z,1.46
2019-01-27T17:27:16.001Z,1.47
2019-01-27T17:29:45.059Z,1.54
2019-01-27T17:32:14.344Z,1.54
2019-01-27T17:34:43.429Z,1.45
2019-01-27T17:37:12.491Z,1.49
2019-01-27T17:39:41.598Z,1.55
2019-01-27T17:42:10.656Z,1.57
2019-01-27T17:44:39.724Z,1.56
2019-01-27T17:47:08.816Z,1.55
2019-01-27T17:49:37.871Z,1.56
2019-01-27T17:52:06.922Z,1.48
2019-01-27T17:54:36.045Z,1.53
2019-01-27T17:57:05.105Z,1.57
2019-01-27T17:59:34.162Z,1.59
2019-01-27T18:02:06.068Z,1.53
2019-01-27T18:04:35.109Z,1.57
2019-01-27T18:07:04.170Z,1.56
2019-01-27T18:09:37.283Z,1.59
2019-01-27T18:14:49.727Z,1.68
2019-01-27T18:17:18.780Z,1.73
2019-01-27T18:19:47.847Z,1.76
2019-01-27T18:22:16.946Z,1.82
2019-01-27T18:24:46.975Z,1.80
2019-01-27T18:27:16.030Z,1.81
2019-01-27T18:29:45.132Z,1.81
2019-01-27T18:32:14.206Z,1.80
2019-01-27T18:34:43.260Z,1.83
2019-01-27T18:37:12.355Z,1.87
2019-01-27T18:39:41.412Z,1.90
2019-01-27T18:42:10.503Z,1.90
2019-01-27T18:44:39.593Z,1.94
2019-01-27T18:47:08.635Z,1.94
2019-01-27T18:49:37.721Z,1.89
2019-01-27T18:52:06.814Z,1.94
2019-01-27T18:54:37.831Z,1.90
2019-01-27T18:57:06.884Z,1.90
2019-01-27T18:59:41.443Z,1.97
2019-01-27T19:02:13.169Z,2.03
2019-01-27T19:04:41.508Z,2.06
2019-01-27T19:07:13.466Z,2.09
2019-01-27T19:09:42.560Z,2.11
2019-01-27T19:12:15.786Z,2.13
2019-01-27T19:14:44.880Z,2.16
2019-01-27T19:17:19.379Z,2.18
2019-01-27T19:19:48.431Z,2.21
2019-01-27T19:22:18.419Z,2.21
2019-01-27T19:24:53.972Z,2.22
2019-01-27T19:27:24.781Z,2.23
2019-01-27T19:29:55.723Z,2.23
2019-01-27T19:32:24.783Z,2.24
2019-01-27T19:34:55.784Z,2.24
2019-01-27T19:37:28.305Z,2.30
2019-01-27T19:40:01.112Z,2.30
2019-01-27T19:42:30.256Z,2.31
2019-01-27T19:45:05.191Z,2.31
2019-01-27T19:47:35.861Z,2.29
2019-01-27T19:50:04.918Z,2.29
2019-01-27T19:52:37.943Z,2.30
2019-01-27T19:55:08.811Z,2.26
2019-01-27T19:57:43.454Z,2.29
2019-01-27T20:00:14.006Z,2.31
2019-01-27T20:02:48.588Z,2.32
2019-01-27T20:05:18.595Z,2.34
2019-01-27T20:07:47.648Z,2.37
2019-01-27T20:10:16.755Z,2.39
2019-01-27T20:12:46.660Z,2.41
2019-01-27T20:15:16.554Z,2.42
2019-01-27T20:17:48.695Z,2.42
2019-01-27T20:20:23.214Z,2.45
2019-01-27T20:22:57.783Z,2.47
2019-01-27T20:25:26.869Z,2.50
2019-01-27T20:27:56.761Z,2.52
2019-01-27T20:30:25.837Z,2.55
2019-01-27T20:32:55.865Z,2.54
2019-01-27T20:35:27.903Z,2.57
2019-01-27T20:38:00.783Z,2.64
2019-01-27T20:40:29.859Z,2.63
2019-01-27T20:42:59.733Z,2.65
2019-01-27T20:45:31.721Z,2.65
2019-01-27T20:48:06.275Z,2.68
2019-01-27T20:53:19.780Z,2.69
2019-01-27T20:55:48.834Z,2.70
2019-01-27T20:58:17.898Z,2.72
2019-01-27T21:00:46.961Z,2.74
2019-01-27T21:03:21.036Z,2.76
2019-01-27T21:05:52.926Z,2.76
2019-01-27T21:08:22.054Z,2.79
2019-01-27T21:10:52.074Z,2.78
2019-01-27T21:13:26.135Z,2.84
2019-01-27T21:15:59.151Z,2.84
2019-01-27T21:18:29.230Z,2.89
2019-01-27T21:20:58.284Z,2.88
2019-01-27T21:23:27.343Z,2.92
2019-01-27T21:25:56.449Z,2.94
2019-01-27T21:28:25.503Z,2.96
2019-01-27T21:30:54.573Z,2.97
2019-01-27T21:33:23.665Z,2.97
2019-01-27T21:35:52.720Z,2.99
2019-01-27T21:38:21.788Z,3.02
2019-01-27T21:40:50.880Z,3.02
2019-01-27T21:43:19.942Z,3.07
2019-01-27T21:45:49.852Z,3.03
2019-01-27T21:48:18.956Z,3.09
2019-01-27T21:50:48.011Z,3.09
2019-01-27T21:53:17.074Z,3.07
2019-01-27T21:55:46.201Z,3.11
2019-01-27T21:58:15.259Z,3.10
2019-01-27T22:00:44.327Z,3.08
2019-01-27T22:03:13.461Z,3.11
2019-01-27T22:05:42.526Z,3.12
2019-01-27T22:08:11.589Z,3.12
2019-01-27T22:10:40.703Z,3.09
2019-01-27T22:13:09.738Z,3.08
2019-01-27T22:15:38.788Z,3.11
2019-01-27T22:18:07.888Z,3.08
2019-01-27T22:20:36.948Z,3.08
2019-01-27T22:23:06.188Z,3.07
2019-01-27T22:25:35.120Z,3.10
2019-01-27T22:28:04.173Z,3.13
2019-01-27T22:30:33.223Z,3.13
2019-01-27T22:33:02.435Z,3.14
2019-01-27T22:35:31.486Z,3.13
2019-01-27T22:38:00.540Z,3.12
2019-01-27T22:40:29.674Z,3.13
2019-01-27T22:42:58.706Z,3.15
2019-01-27T22:45:27.760Z,3.14
2019-01-27T22:47:56.846Z,3.07
2019-01-27T22:50:25.898Z,3.12
2019-01-27T22:52:54.948Z,3.07
2019-01-27T22:55:24.047Z,3.14
2019-01-27T22:57:53.114Z,3.13
2019-01-27T23:00:23.096Z,3.16
2019-01-27T23:02:52.173Z,3.16
2019-01-27T23:05:21.328Z,3.11
2019-01-27T23:07:50.391Z,3.14
2019-01-27T23:10:19.459Z,3.13
2019-01-27T23:12:48.509Z,3.13
2019-01-27T23:15:17.554Z,3.13
2019-01-27T23:17:46.666Z,3.12
2019-01-27T23:20:15.722Z,3.10
2019-01-27T23:22:44.770Z,3.09
2019-01-27T23:25:13.856Z,3.10
2019-01-27T23:27:42.906Z,3.06
2019-01-27T23:30:11.961Z,3.08
2019-01-27T23:32:41.041Z,3.09
2019-01-27T23:35:10.097Z,3.09
2019-01-27T23:37:39.144Z,3.09
2019-01-27T23:40:08.259Z,3.08
2019-01-27T23:42:37.305Z,3.10
2019-01-27T23:45:06.364Z,3.09
2019-01-27T23:47:35.430Z,3.10
2019-01-27T23:50:04.492Z,3.11
2019-01-27T23:52:33.548Z,3.11
2019-01-27T23:55:02.630Z,3.09
2019-01-27T23:57:31.674Z,3.09
